Huvudsida
METAR-TAF:

METAR-TAF

Flygplatser :

Hans Christian Andersens flygplats

Odense, Danmark

latitud: 55-29N, longitud: 010-20E, höjd: 17 m

Aktuellt väderrapport

Denna rapport gjordes för 31 minuter sedan, klockan 14:50 UTC
Vind 4 kt från nordost, varierande mellan nordväst och ost
Temperatur 9°C
Fuktighet 61%
Tryck 1009 hPa
Sikt 10 km eller mer
Få moln på en höjd av 2800 ft

METAR: EKOD 171450Z 04004KT 310V090 9999 FEW028 09/02 Q1009

Tid: 17:21 (15:21 UTC)

Väderprognos

Denna rapport gjordes för 3 timmar och 29 minuter sedan, klockan 11:52 UTC
Prognos gäller från 17 kl. 12 UTC till 17 kl. 16 UTC
Vind 5 kt från ost/nordost
Sikt 10 km eller mer
Spridda moln på en höjd av 3000 ft
Temporärt
från 17 kl. 12 UTC till 17 kl. 16 UTC
Sikt: 4000 m
Spridda moln på en höjd av 2000 ft, Cumulonimbus.
regnskurar,

TAF: EKOD 171152Z 1712/1716 07005KT 9999 SCT030 TEMPO 1712/1716 4000 SHRA SCT020CB

Aktuella väderrapporter och prognoser från 4000 flygplatser (METAR- och TAF-rapporter).

De tillgängliga stationerna syns som gula och röda prickar på kartan.

För musen över prickarna för att se namnen på stationerna.

Klicka sedan för att få väderrapporter och prognoser.

För att ändra kartan: Klicka på de gröna knapparna med ett svart kors på för att zooma in; den gröna knappen med ett streck på för att zooma ut; eller på de gröna pilarna för angränsande kartor.


METAR-TAF: